Burkemont, North Carolina
Current Conditions -  °F | °C
As of 2:55 PM on Sunday 23 Nov 2014 (Local Time) from KMRN Reporting Station
Moderate Rain Moderate Rain  
Wind Chill: 40°   Ceiling: 300
Heat Index: 43°   Visibility: 2mi
Dew Point: 43°   Wind: 5mph
Humidity: 100%   Direction: 360°N
Pressure: 30.03"   Gusts: NA
Location:  35.7567°N, 81.7518°W
Report Text: KMRN 231955Z AUTO 36004KT 2SM RA BKN003 OVC011 06/06 A3003 RMK AO2 VIS 1 1/2V3 P0015 T00600060
Loading
Personal Weather Stations






























Interactive Weather Map New forecast layout! Learn more

10-Day Weather Forecast

Advertisements
Track Severe Weather on mobile